FW2126 Weather Reports


Display with metric or nautical units.
time (UTC)temp
F
wind
direction
speed
MPH
gust
MPH
rain 1hr
in
rain 24hr
in
rain mn
in
humidity
%
barometer
mb
20190917084541 69 199 10.0 16.0 0.00 0.00 0.00 64 1009.9
20190917083035 69 199 11.0 14.0 0.00 0.00 0.00 64 1010.2
20190917081548 69 360 9.0 12.0 0.00 0.00 0.00 64 1010.3
20190917080037 66 200 8.0 13.0 0.00 0.00 0.00 69 1010.5
20190917074549 65 360 4.0 6.0 0.00 0.00 0.00 71 1010.8
20190917073013 65 360 4.0 6.0 0.00 0.00 0.00 71 1010.8
20190917071521 66 360 4.0 10.0 0.00 0.00 0.00 69 1010.7
20190917070016 66 360 5.0 8.0 0.00 0.00 0.00 67 1010.7
20190917064519 67 360 4.0 7.0 0.00 0.00 0.00 65 1010.6
20190917063001 68 360 6.0 10.0 0.00 0.00 0.00 65 1010.6
20190917061726 68 159 5.0 10.0 0.00 0.00 0.00 64 1010.6
20190917060211 69 167 5.0 9.0 0.00 0.00 0.00 62 1010.6
20190917054646 70 360 8.0 14.0 0.00 0.00 0.00 60 1010.6
20190917053138 71 360 9.0 14.0 0.00 0.00 0.00 59 1010.8
20190917051628 71 360 10.0 14.0 0.00 0.00 0.00 58 1011.0
20190917050120 72 360 10.0 14.0 0.00 0.00 0.00 57 1010.8
20190917044711 72 200 10.0 16.0 0.00 0.00 0.00 56 1010.8
20190917043219 72 136 9.0 17.0 0.00 0.00 0.00 56 1010.8
20190917041647 72 128 10.0 16.0 0.00 0.00 0.00 56 1010.6
20190917040137 72 238 9.0 18.0 0.00 0.00 0.00 55 1010.8
20190917034633 72 142 8.0 13.0 0.00 0.00 0.00 54 1010.7
20190917033134 72 360 7.0 12.0 0.00 0.00 0.00 54 1010.8
20190917031606 72 360 8.0 13.0 0.00 0.00 0.00 53 1010.7
20190917030135 72 137 6.0 10.0 0.00 0.00 0.00 53 1010.6
20190917024612 73 360 8.0 11.0 0.00 0.00 0.00 51 1010.6
20190917023117 75 360 5.0 10.0 0.00 0.00 0.00 49 1010.4
20190917021559 76 360 8.0 15.0 0.00 0.00 0.00 47 1010.1
20190917020116 77 163 10.0 15.0 0.00 0.00 0.00 46 1010.0
20190917014624 77 360 9.0 13.0 0.00 0.00 0.00 45 1009.7
20190917013132 78 360 9.0 14.0 0.00 0.00 0.00 45 1009.5
20190917011602 78 360 10.0 15.0 0.00 0.00 0.00 45 1009.4
20190917010105 79 133 9.0 14.0 0.00 0.00 0.00 43 1009.3
20190917004611 80 177 10.0 16.0 0.00 0.00 0.00 41 1009.3
20190917003057 81 360 11.0 18.0 0.00 0.00 0.00 41 1009.3
20190917001611 82 360 11.0 18.0 0.00 0.00 0.00 39 1009.3
20190917000110 82 360 11.0 17.0 0.00 0.00 0.00 36 1009.3
20190916234613 83 360 10.0 18.0 0.00 0.00 0.00 34 1009.2
20190916233112 84 360 15.0 23.0 0.00 0.00 0.00 33 1009.2
20190916231618 85 360 17.0 24.0 0.00 0.00 0.00 34 1009.4
20190916230124 85 360 15.0 22.0 0.00 0.00 0.00 32 1009.2
20190916224542 86 360 13.0 24.0 0.00 0.00 0.00 31 1009.2
20190916223100 87 360 15.0 23.0 0.00 0.00 0.00 32 1009.4
20190916221611 87 139 14.0 23.0 0.00 0.00 0.00 32 1009.4
20190916220047 88 143 15.0 25.0 0.00 0.00 0.00 31 1009.7
20190916214540 86 360 15.0 21.0 0.00 0.00 0.00 32 1009.7
20190916213125 87 360 16.0 26.0 0.00 0.00 0.00 32 1009.9
20190916211530 87 360 11.0 23.0 0.00 0.00 0.00 32 1010.1
20190916210029 86 360 9.0 19.0 0.00 0.00 0.00 33 1010.2
20190916204603 87 200 16.0 29.0 0.00 0.00 0.00 32 1010.4
20190916203032 86 360 15.0 24.0 0.00 0.00 0.00 33 1010.4
20190916201534 86 218 14.0 22.0 0.00 0.00 0.00 33 1010.8
20190916200028 86 360 15.0 24.0 0.00 0.00 0.00 34 1011.3
20190916194520 86 360 14.0 22.0 0.00 0.00 0.00 34 1011.4
20190916193012 85 211 16.0 24.0 0.00 0.00 0.00 34 1011.6
20190916191509 84 223 15.0 26.0 0.00 0.00 0.00 35 1012.1
20190916190009 86 211 18.0 23.0 0.00 0.00 0.00 34 1012.1
20190916184525 85 360 11.0 27.0 0.00 0.00 0.00 35 1012.4
20190916183014 86 188 16.0 26.0 0.00 0.00 0.00 35 1012.5
20190916181502 84 207 16.0 27.0 0.00 0.00 0.00 36 1012.6
20190916180316 85 360 14.0 28.0 0.00 0.00 0.00 37 1012.7
20190916174752 85 360 16.0 22.0 0.00 0.00 0.00 36 1013.0
20190916173201 84 206 17.0 25.0 0.00 0.00 0.00 38 1013.3
20190916171644 83 360 19.0 25.0 0.00 0.00 0.00 40 1013.6
20190916170142 82 360 14.0 22.0 0.00 0.00 0.00 43 1013.9
20190916164649 81 220 14.0 25.0 0.00 0.00 0.00 44 1014.1
20190916163221 80 198 14.0 20.0 0.00 0.00 0.00 45 1014.1
20190916161647 79 360 12.0 18.0 0.00 0.00 0.00 48 1014.3
20190916160138 78 200 14.0 26.0 0.00 0.00 0.00 47 1014.3
20190916154634 79 360 13.0 26.0 0.00 0.00 0.00 47 1014.5
20190916153109 78 217 16.0 27.0 0.00 0.00 0.00 48 1014.5
20190916151559 76 221 17.0 25.0 0.00 0.00 0.00 50 1014.5
20190916150204 74 215 13.0 23.0 0.00 0.00 0.00 54 1014.6
20190916144551 72 187 15.0 23.0 0.00 0.00 0.00 57 1014.5
20190916143103 70 209 12.0 15.0 0.00 0.00 0.00 60 1014.5
20190916141547 69 360 10.0 16.0 0.00 0.00 0.00 62 1014.4
20190916140021 68 360 8.0 15.0 0.00 0.00 0.00 64 1014.4
20190916134601 67 171 8.0 13.0 0.00 0.00 0.00 66 1014.5
20190916131510 65 360 7.0 11.0 0.00 0.00 0.00 70 1014.1
20190916130037 63 360 7.0 12.0 0.00 0.00 0.00 73 1014.0
20190916124513 62 190 6.0 8.0 0.00 0.00 0.00 74 1014.0
20190916123006 61 360 6.0 10.0 0.00 0.00 0.00 76 1013.9
20190916121503 60 360 5.0 8.0 0.00 0.00 0.00 77 1013.9
20190916120001 61 360 4.0 6.0 0.00 0.00 0.00 76 1013.9
20190916113205 60 360 4.0 8.0 0.00 0.00 0.00 75 1013.6
20190916111818 61 360 4.0 6.0 0.00 0.00 0.00 75 1013.5
20190916110220 61 183 4.0 6.0 0.00 0.00 0.00 73 1013.2
20190916104730 62 360 4.0 8.0 0.00 0.00 0.00 72 1013.1
20190916103145 62 360 5.0 8.0 0.00 0.00 0.00 72 1013.3
20190916101747 62 360 5.0 7.0 0.00 0.00 0.00 72 1013.2
20190916100128 62 189 4.0 7.0 0.00 0.00 0.00 71 1013.4
20190916094605 62 360 4.0 6.0 0.00 0.00 0.00 71 1013.3
20190916093138 62 360 5.0 9.0 0.00 0.00 0.00 70 1013.3
20190916091555 62 175 5.0 8.0 0.00 0.00 0.00 72 1013.4
20190916090121 61 179 5.0 6.0 0.00 0.00 0.00 73 1013.4